createdAt,value
2022-11-16T00:01:20.213Z,83.83
2022-11-16T00:03:51.335Z,83.84
2022-11-16T00:06:22.626Z,83.97
2022-11-16T00:09:10.166Z,84.31
2022-11-16T00:11:41.125Z,84.04
2022-11-16T00:14:11.300Z,84.31
2022-11-16T00:16:41.406Z,84.41
2022-11-16T00:19:14.158Z,84.60
2022-11-16T00:21:44.532Z,84.55
2022-11-16T00:24:19.385Z,84.60
2022-11-16T00:26:50.176Z,84.37
2022-11-16T00:29:22.431Z,84.63
2022-11-16T00:31:53.855Z,84.75
2022-11-16T00:34:25.343Z,84.39
2022-11-16T00:36:55.506Z,84.65
2022-11-16T00:39:28.322Z,84.87
2022-11-16T00:41:58.444Z,84.93
2022-11-16T00:44:28.629Z,84.73
2022-11-16T00:46:58.699Z,84.43
2022-11-16T00:49:28.897Z,84.67
2022-11-16T00:51:58.912Z,84.70
2022-11-16T00:54:31.611Z,84.63
2022-11-16T00:57:01.723Z,84.64
2022-11-16T00:59:31.924Z,84.97
2022-11-16T01:02:02.005Z,84.80
2022-11-16T01:04:32.276Z,84.78
2022-11-16T01:07:02.904Z,84.90
2022-11-16T01:09:35.677Z,85.03
2022-11-16T01:12:08.976Z,84.99
2022-11-16T01:14:40.137Z,85.13
2022-11-16T01:17:10.700Z,85.24
2022-11-16T01:19:41.086Z,85.00
2022-11-16T01:22:11.720Z,85.20
2022-11-16T01:24:44.542Z,85.00
2022-11-16T01:27:14.578Z,84.57
2022-11-16T01:29:45.488Z,84.83
2022-11-16T01:32:15.540Z,84.65
2022-11-16T01:34:45.737Z,84.65
2022-11-16T01:37:15.865Z,84.93
2022-11-16T01:39:48.644Z,84.89
2022-11-16T01:42:21.487Z,84.78
2022-11-16T01:45:05.070Z,84.89
2022-11-16T01:47:35.624Z,85.07
2022-11-16T01:50:10.703Z,84.67
2022-11-16T01:52:44.756Z,84.88
2022-11-16T01:55:17.414Z,85.07
2022-11-16T01:57:50.070Z,85.36
2022-11-16T02:00:21.286Z,85.38
2022-11-16T02:02:51.584Z,85.34
2022-11-16T02:05:30.837Z,85.17
2022-11-16T02:08:32.477Z,85.30
2022-11-16T02:11:27.403Z,85.19
2022-11-16T02:14:08.166Z,84.89
2022-11-16T02:16:51.107Z,84.89
2022-11-16T02:19:41.344Z,85.39
2022-11-16T02:22:26.225Z,85.17
2022-11-16T02:25:05.373Z,85.07
2022-11-16T02:28:14.634Z,85.12
2022-11-16T02:30:53.173Z,85.08
2022-11-16T02:33:30.555Z,85.26
2022-11-16T02:36:03.587Z,85.50
2022-11-16T02:38:37.895Z,85.63
2022-11-16T02:41:13.970Z,85.49
2022-11-16T02:43:48.735Z,85.64
2022-11-16T02:46:25.490Z,85.25
2022-11-16T02:49:00.343Z,85.52
2022-11-16T02:51:31.674Z,85.48
2022-11-16T02:54:05.867Z,85.72
2022-11-16T02:56:46.004Z,85.69
2022-11-16T02:59:17.865Z,86.05
2022-11-16T03:01:59.501Z,85.87
2022-11-16T03:04:35.321Z,85.94
2022-11-16T03:07:08.561Z,85.85
2022-11-16T03:09:41.767Z,85.57
2022-11-16T03:12:24.504Z,85.67
2022-11-16T03:14:58.180Z,85.38
2022-11-16T03:17:34.555Z,85.46
2022-11-16T03:20:09.015Z,85.66
2022-11-16T03:22:42.845Z,85.31
2022-11-16T03:25:15.753Z,85.88
2022-11-16T03:27:56.750Z,85.51
2022-11-16T03:30:29.430Z,86.02
2022-11-16T03:33:11.314Z,85.58
2022-11-16T03:35:46.661Z,85.67
2022-11-16T03:38:23.114Z,85.54
2022-11-16T03:40:54.418Z,85.93
2022-11-16T03:43:25.759Z,85.39
2022-11-16T03:45:56.474Z,85.51
2022-11-16T03:48:35.255Z,85.53
2022-11-16T03:51:07.316Z,85.82
2022-11-16T03:53:37.502Z,85.64
2022-11-16T03:56:08.055Z,85.59
2022-11-16T03:58:38.178Z,86.09
2022-11-16T04:01:08.606Z,85.89
2022-11-16T04:03:41.487Z,85.64
2022-11-16T04:06:24.827Z,85.77
2022-11-16T04:09:07.314Z,85.96
2022-11-16T04:11:51.225Z,85.78
2022-11-16T04:14:36.428Z,85.58
2022-11-16T04:17:19.329Z,85.88
2022-11-16T04:20:04.453Z,85.40
2022-11-16T04:22:51.147Z,85.76
2022-11-16T04:25:24.770Z,85.46
2022-11-16T04:28:08.778Z,85.64
2022-11-16T04:30:51.404Z,85.46
2022-11-16T04:33:34.033Z,85.19
2022-11-16T04:36:20.821Z,85.40
2022-11-16T04:38:51.010Z,85.28
2022-11-16T04:41:33.629Z,85.41
2022-11-16T04:44:03.682Z,84.79
2022-11-16T04:46:46.252Z,85.23
2022-11-16T04:49:16.501Z,84.86
2022-11-16T04:51:49.464Z,85.35
2022-11-16T04:54:19.588Z,85.03
2022-11-16T04:56:49.840Z,85.34
2022-11-16T04:59:22.854Z,85.44
2022-11-16T05:02:08.220Z,85.45
2022-11-16T05:04:38.793Z,85.50
2022-11-16T05:07:13.617Z,85.15
2022-11-16T05:09:45.601Z,85.13
2022-11-16T05:12:17.695Z,85.06
2022-11-16T05:14:48.416Z,85.32
2022-11-16T05:17:20.238Z,85.20
2022-11-16T05:20:03.376Z,85.36
2022-11-16T05:22:36.727Z,85.43
2022-11-16T05:25:07.498Z,85.35
2022-11-16T05:27:38.113Z,85.43
2022-11-16T05:30:11.423Z,85.66
2022-11-16T05:32:41.599Z,85.32
2022-11-16T05:35:12.011Z,85.39
2022-11-16T05:37:44.817Z,85.39
2022-11-16T05:40:15.501Z,85.08
2022-11-16T05:42:45.608Z,85.13
2022-11-16T05:45:20.963Z,84.90
2022-11-16T05:47:51.518Z,84.95
2022-11-16T05:50:21.856Z,84.88
2022-11-16T05:52:54.586Z,85.27
2022-11-16T05:55:25.417Z,85.18
2022-11-16T05:57:55.559Z,84.82
2022-11-16T06:00:25.995Z,85.22
2022-11-16T06:02:56.145Z,85.05
2022-11-16T06:05:26.446Z,85.21
2022-11-16T06:08:10.128Z,85.53
2022-11-16T06:10:42.508Z,85.27
2022-11-16T06:13:12.654Z,85.03
2022-11-16T06:18:27.835Z,85.10
2022-11-16T06:20:58.529Z,85.29
2022-11-16T06:23:31.220Z,85.33
2022-11-16T06:26:01.909Z,84.82
2022-11-16T06:28:32.908Z,84.79
2022-11-16T06:31:03.567Z,84.79
2022-11-16T06:33:34.070Z,84.56
2022-11-16T06:36:04.297Z,84.45
2022-11-16T06:38:37.271Z,84.55
2022-11-16T06:41:07.920Z,84.18
2022-11-16T06:43:38.013Z,84.05
2022-11-16T06:46:08.848Z,83.76
2022-11-16T06:48:38.895Z,83.75
2022-11-16T06:51:09.264Z,83.55
2022-11-16T06:53:41.977Z,83.84
2022-11-16T06:56:16.477Z,83.97
2022-11-16T06:58:46.560Z,83.53
2022-11-16T07:01:16.766Z,83.49
2022-11-16T07:03:47.875Z,83.62
2022-11-16T07:06:18.000Z,83.83
2022-11-16T07:08:50.730Z,83.85
2022-11-16T07:11:21.071Z,83.91
2022-11-16T07:13:51.295Z,83.61
2022-11-16T07:16:22.186Z,83.61
2022-11-16T07:18:52.173Z,83.61
2022-11-16T07:21:22.483Z,83.17
2022-11-16T07:23:55.929Z,82.48
2022-11-16T07:26:26.394Z,82.61
2022-11-16T07:28:56.555Z,82.74
2022-11-16T07:31:29.578Z,83.05
2022-11-16T07:33:59.679Z,82.89
2022-11-16T07:36:30.151Z,83.07
2022-11-16T07:39:03.355Z,82.80
2022-11-16T07:41:33.584Z,83.00
2022-11-16T07:44:06.429Z,83.15
2022-11-16T07:46:47.580Z,83.09
2022-11-16T07:49:19.603Z,82.85
2022-11-16T07:51:50.408Z,82.61
2022-11-16T07:54:23.116Z,82.68
2022-11-16T07:56:53.244Z,83.04
2022-11-16T07:59:23.614Z,82.87
2022-11-16T08:01:55.510Z,82.66
2022-11-16T08:04:25.875Z,82.55
2022-11-16T08:06:56.150Z,82.32
2022-11-16T08:09:29.084Z,82.26
2022-11-16T08:11:59.254Z,83.17
2022-11-16T08:14:29.447Z,83.21
2022-11-16T08:16:59.617Z,82.88
2022-11-16T08:19:30.441Z,82.96
2022-11-16T08:22:00.756Z,82.97
2022-11-16T08:24:33.404Z,82.91
2022-11-16T08:27:03.498Z,82.95
2022-11-16T08:29:36.226Z,83.56
2022-11-16T08:32:06.634Z,83.51
2022-11-16T08:34:37.303Z,83.29
2022-11-16T08:37:07.489Z,83.68
2022-11-16T08:39:40.216Z,83.25
2022-11-16T08:42:10.409Z,83.20
2022-11-16T08:44:40.613Z,83.55
2022-11-16T08:47:10.675Z,83.36
2022-11-16T08:49:43.996Z,83.13
2022-11-16T08:52:18.540Z,83.07
2022-11-16T08:54:51.310Z,83.07
2022-11-16T08:57:21.424Z,82.83
2022-11-16T08:59:52.026Z,83.03
2022-11-16T09:02:25.774Z,82.56
2022-11-16T09:04:55.762Z,82.95
2022-11-16T09:07:25.872Z,83.28
2022-11-16T09:09:58.641Z,82.79
2022-11-16T09:12:28.910Z,83.16
2022-11-16T09:14:59.028Z,82.76
2022-11-16T09:17:29.250Z,83.01
2022-11-16T09:19:59.410Z,82.53
2022-11-16T09:22:29.523Z,83.06
2022-11-16T09:25:02.354Z,82.92
2022-11-16T09:27:32.562Z,83.04
2022-11-16T09:30:02.683Z,83.00
2022-11-16T09:32:34.143Z,83.24
2022-11-16T09:35:04.196Z,82.83
2022-11-16T09:37:34.213Z,83.10
2022-11-16T09:40:07.774Z,82.74
2022-11-16T09:42:51.727Z,83.06
2022-11-16T09:45:27.728Z,82.68
2022-11-16T09:48:02.981Z,81.99
2022-11-16T09:50:41.577Z,82.25
2022-11-16T09:53:23.660Z,81.90
2022-11-16T09:55:59.270Z,81.46
2022-11-16T09:58:34.798Z,80.66
2022-11-16T10:01:10.541Z,80.97
2022-11-16T10:03:46.323Z,81.45
2022-11-16T10:06:23.879Z,81.68
2022-11-16T10:08:56.830Z,81.13
2022-11-16T10:11:49.636Z,82.91
2022-11-16T10:14:32.507Z,83.90
2022-11-16T10:17:09.518Z,84.75
2022-11-16T10:19:50.740Z,83.60
2022-11-16T10:22:33.752Z,82.87
2022-11-16T10:25:09.991Z,82.94
2022-11-16T10:27:55.243Z,82.76
2022-11-16T10:30:25.978Z,82.03
2022-11-16T10:33:02.830Z,82.33
2022-11-16T10:35:40.512Z,82.17
2022-11-16T10:38:15.909Z,82.11
2022-11-16T10:40:52.735Z,82.09
2022-11-16T10:43:28.486Z,81.77
2022-11-16T10:46:03.174Z,82.00
2022-11-16T10:48:41.379Z,81.91
2022-11-16T10:51:12.858Z,81.80
2022-11-16T10:53:44.757Z,82.26
2022-11-16T10:56:20.372Z,82.21
2022-11-16T10:58:59.837Z,82.32
2022-11-16T11:01:38.871Z,82.45
2022-11-16T11:04:26.075Z,82.25
2022-11-16T11:06:58.076Z,82.67
2022-11-16T11:09:33.500Z,81.70
2022-11-16T11:12:19.510Z,81.81
2022-11-16T11:15:07.863Z,82.05
2022-11-16T11:17:39.182Z,81.82
2022-11-16T11:20:22.681Z,82.34
2022-11-16T11:22:57.157Z,82.68
2022-11-16T11:25:32.317Z,83.47
2022-11-16T11:28:08.875Z,84.56
2022-11-16T11:30:42.653Z,84.18
2022-11-16T11:33:14.425Z,83.48
2022-11-16T11:35:44.721Z,84.84
2022-11-16T11:38:18.208Z,85.36
2022-11-16T11:41:00.201Z,84.54
2022-11-16T11:43:33.850Z,83.97
2022-11-16T11:46:16.713Z,83.82
2022-11-16T11:48:55.007Z,83.72
2022-11-16T11:51:30.517Z,83.46
2022-11-16T11:54:01.983Z,82.99
2022-11-16T11:56:34.844Z,83.29
2022-11-16T11:59:07.243Z,83.26
2022-11-16T12:02:04.258Z,82.96
2022-11-16T12:05:01.237Z,82.38
2022-11-16T12:07:54.774Z,82.84
2022-11-16T12:10:34.515Z,82.31
2022-11-16T12:13:23.814Z,82.69
2022-11-16T12:16:05.993Z,81.91
2022-11-16T12:18:56.036Z,81.57
2022-11-16T12:21:35.661Z,81.69
2022-11-16T12:24:17.229Z,81.20
2022-11-16T12:27:00.221Z,82.00
2022-11-16T12:29:38.942Z,81.17
2022-11-16T12:32:41.151Z,81.19
2022-11-16T12:35:44.379Z,81.31
2022-11-16T12:38:28.006Z,81.22
2022-11-16T12:41:14.590Z,81.00
2022-11-16T12:43:53.249Z,81.03
2022-11-16T12:46:30.356Z,80.57
2022-11-16T12:49:34.340Z,80.66
2022-11-16T12:52:23.977Z,80.96
2022-11-16T12:55:29.814Z,80.69
2022-11-16T12:58:10.409Z,80.47
2022-11-16T13:00:56.970Z,80.57
2022-11-16T13:03:34.671Z,80.00
2022-11-16T13:06:07.586Z,80.23
2022-11-16T13:08:49.843Z,80.05
2022-11-16T13:11:27.614Z,80.26
2022-11-16T13:14:02.135Z,80.25
2022-11-16T13:16:33.517Z,80.14
2022-11-16T13:19:06.879Z,80.65
2022-11-16T13:21:48.798Z,80.41
2022-11-16T13:24:44.115Z,80.91
2022-11-16T13:27:25.057Z,81.18
2022-11-16T13:30:03.622Z,81.15
2022-11-16T13:32:50.004Z,81.12
2022-11-16T13:35:21.128Z,80.74
2022-11-16T13:37:52.702Z,80.65
2022-11-16T13:40:31.367Z,80.91
2022-11-16T13:43:06.549Z,80.83
2022-11-16T13:45:44.711Z,80.81
2022-11-16T13:48:22.468Z,81.04
2022-11-16T13:50:56.902Z,81.01
2022-11-16T13:56:29.386Z,81.73
2022-11-16T13:59:01.123Z,81.99
2022-11-16T14:02:01.069Z,82.55
2022-11-16T14:04:58.789Z,82.06
2022-11-16T14:07:35.104Z,81.61
2022-11-16T14:10:08.161Z,81.39
2022-11-16T14:13:00.006Z,81.66
2022-11-16T14:15:40.167Z,81.60
2022-11-16T14:18:38.290Z,82.16
2022-11-16T14:21:17.620Z,83.21
2022-11-16T14:24:11.038Z,82.72
2022-11-16T14:26:50.213Z,82.46
2022-11-16T14:29:43.031Z,82.26
2022-11-16T14:32:23.446Z,81.97
2022-11-16T14:34:58.636Z,82.31
2022-11-16T14:37:37.927Z,82.13
2022-11-16T14:40:11.742Z,82.10
2022-11-16T14:43:09.996Z,82.14
2022-11-16T14:45:42.012Z,82.58
2022-11-16T14:48:18.954Z,81.89
2022-11-16T14:51:05.652Z,82.30
2022-11-16T14:53:38.776Z,82.63
2022-11-16T14:56:11.670Z,83.32
2022-11-16T14:58:42.567Z,83.06
2022-11-16T15:01:17.577Z,83.59
2022-11-16T15:03:55.952Z,83.87
2022-11-16T15:06:29.727Z,83.49
2022-11-16T15:09:03.676Z,83.06
2022-11-16T15:11:49.235Z,82.86
2022-11-16T15:14:25.742Z,82.64
2022-11-16T15:16:57.384Z,82.70
2022-11-16T15:19:28.439Z,82.57
2022-11-16T15:22:03.492Z,82.34
2022-11-16T15:24:35.249Z,82.39
2022-11-16T15:27:15.246Z,82.58
2022-11-16T15:29:45.436Z,82.18
2022-11-16T15:32:19.447Z,82.63
2022-11-16T15:34:53.818Z,82.32
2022-11-16T15:37:35.362Z,82.46
2022-11-16T15:40:06.166Z,82.27
2022-11-16T15:42:36.437Z,82.55
2022-11-16T15:45:15.775Z,81.81
2022-11-16T15:47:47.305Z,81.94
2022-11-16T15:50:23.275Z,81.76
2022-11-16T15:52:59.833Z,82.28
2022-11-16T15:55:39.319Z,82.16
2022-11-16T15:58:16.846Z,81.87
2022-11-16T16:00:51.338Z,81.99
2022-11-16T16:03:24.776Z,82.14
2022-11-16T16:05:55.901Z,82.34
2022-11-16T16:08:34.519Z,82.38
2022-11-16T16:11:08.213Z,81.62
2022-11-16T16:13:40.649Z,81.77
2022-11-16T16:16:23.771Z,81.85
2022-11-16T16:18:59.169Z,81.78
2022-11-16T16:21:42.670Z,81.67
2022-11-16T16:24:37.389Z,81.17
2022-11-16T16:27:16.961Z,81.58
2022-11-16T16:29:57.639Z,81.48
2022-11-16T16:32:28.332Z,81.54
2022-11-16T16:34:59.767Z,81.61
2022-11-16T16:37:31.912Z,81.50
2022-11-16T16:40:06.517Z,81.59
2022-11-16T16:42:36.681Z,81.39
2022-11-16T16:45:07.699Z,81.73
2022-11-16T16:47:38.014Z,81.88
2022-11-16T16:50:08.888Z,81.87
2022-11-16T16:52:41.796Z,81.89
2022-11-16T16:55:14.612Z,81.75
2022-11-16T16:57:44.754Z,81.58
2022-11-16T17:00:16.033Z,82.06
2022-11-16T17:02:46.650Z,81.89
2022-11-16T17:05:16.913Z,81.73
2022-11-16T17:07:47.212Z,81.61
2022-11-16T17:10:20.436Z,82.05
2022-11-16T17:12:50.784Z,81.60
2022-11-16T17:15:27.093Z,81.83
2022-11-16T17:17:57.293Z,82.18
2022-11-16T17:20:27.705Z,81.75
2022-11-16T17:22:58.494Z,81.58
2022-11-16T17:25:33.107Z,81.56
2022-11-16T17:28:03.297Z,81.33
2022-11-16T17:30:33.905Z,81.56
2022-11-16T17:33:04.092Z,81.69
2022-11-16T17:35:34.526Z,81.38
2022-11-16T17:38:04.903Z,81.31
2022-11-16T17:40:37.683Z,81.35
2022-11-16T17:43:07.931Z,81.20
2022-11-16T17:45:38.050Z,81.52
2022-11-16T17:48:08.863Z,81.33
2022-11-16T17:50:39.139Z,81.03
2022-11-16T17:53:09.535Z,81.21
2022-11-16T17:55:42.367Z,81.09
2022-11-16T17:58:12.741Z,81.55
2022-11-16T18:00:52.456Z,81.25
2022-11-16T18:03:24.189Z,81.20
2022-11-16T18:05:54.411Z,81.21
2022-11-16T18:08:24.527Z,80.90
2022-11-16T18:10:57.214Z,80.90
2022-11-16T18:13:27.339Z,81.05
2022-11-16T18:15:57.451Z,80.82
2022-11-16T18:18:27.938Z,80.89
2022-11-16T18:20:58.376Z,80.71
2022-11-16T18:23:28.718Z,80.56
2022-11-16T18:26:03.338Z,80.97
2022-11-16T18:28:33.631Z,80.85
2022-11-16T18:31:07.598Z,80.86
2022-11-16T18:33:38.693Z,80.78
2022-11-16T18:36:10.163Z,80.85
2022-11-16T18:38:40.388Z,80.63
2022-11-16T18:41:19.887Z,80.68
2022-11-16T18:43:54.831Z,80.76
2022-11-16T18:46:27.105Z,80.95
2022-11-16T18:48:58.160Z,80.83
2022-11-16T18:51:30.046Z,80.84
2022-11-16T18:54:00.325Z,80.97
2022-11-16T18:56:33.040Z,81.01
2022-11-16T18:59:03.360Z,80.97
2022-11-16T19:01:36.189Z,81.32
2022-11-16T19:04:07.706Z,81.29
2022-11-16T19:06:37.924Z,81.08
2022-11-16T19:09:09.826Z,81.08
2022-11-16T19:11:42.678Z,81.16
2022-11-16T19:14:12.901Z,81.24
2022-11-16T19:16:52.540Z,81.62
2022-11-16T19:19:25.503Z,81.24
2022-11-16T19:21:57.076Z,81.83
2022-11-16T19:24:27.367Z,82.07
2022-11-16T19:27:00.125Z,82.21
2022-11-16T19:29:30.301Z,82.07
2022-11-16T19:32:00.462Z,82.45
2022-11-16T19:34:33.478Z,82.23
2022-11-16T19:37:03.903Z,82.28
2022-11-16T19:39:34.220Z,82.34
2022-11-16T19:42:07.232Z,82.72
2022-11-16T19:44:37.517Z,82.51
2022-11-16T19:47:08.368Z,82.79
2022-11-16T19:49:41.539Z,82.75
2022-11-16T19:52:11.724Z,82.94
2022-11-16T19:54:42.003Z,82.94
2022-11-16T19:57:17.031Z,82.49
2022-11-16T19:59:47.185Z,82.61
2022-11-16T20:02:17.641Z,82.62
2022-11-16T20:04:47.776Z,82.79
2022-11-16T20:07:18.339Z,82.86
2022-11-16T20:09:53.255Z,82.86
2022-11-16T20:12:27.045Z,83.21
2022-11-16T20:14:57.166Z,83.30
2022-11-16T20:17:27.321Z,83.39
2022-11-16T20:19:57.823Z,83.55
2022-11-16T20:22:27.945Z,83.49
2022-11-16T20:24:58.188Z,83.13
2022-11-16T20:27:30.900Z,83.29
2022-11-16T20:30:06.428Z,83.71
2022-11-16T20:32:39.344Z,83.83
2022-11-16T20:35:11.799Z,83.87
2022-11-16T20:37:46.628Z,83.75
2022-11-16T20:40:19.465Z,83.56
2022-11-16T20:42:52.764Z,83.83
2022-11-16T20:45:23.162Z,83.72
2022-11-16T20:47:58.771Z,83.74
2022-11-16T20:50:28.974Z,83.69
2022-11-16T20:52:59.350Z,83.63
2022-11-16T20:55:29.511Z,83.76
2022-11-16T20:58:02.270Z,83.42
2022-11-16T21:00:32.372Z,83.62
2022-11-16T21:03:02.495Z,83.64
2022-11-16T21:05:32.619Z,83.67
2022-11-16T21:08:02.935Z,83.73
2022-11-16T21:10:36.448Z,83.62
2022-11-16T21:13:22.528Z,83.72
2022-11-16T21:15:59.709Z,83.86
2022-11-16T21:18:31.011Z,83.85
2022-11-16T21:21:02.454Z,83.57
2022-11-16T21:23:35.516Z,83.82
2022-11-16T21:26:07.093Z,83.80
2022-11-16T21:28:40.342Z,83.70
2022-11-16T21:31:14.007Z,83.61
2022-11-16T21:33:44.466Z,83.79
2022-11-16T21:36:16.809Z,84.08
2022-11-16T21:38:47.584Z,83.89
2022-11-16T21:41:19.634Z,84.30
2022-11-16T21:43:52.549Z,84.27
2022-11-16T21:46:24.946Z,83.82
2022-11-16T21:48:56.820Z,84.24
2022-11-16T21:51:28.727Z,84.07
2022-11-16T21:53:58.837Z,83.72
2022-11-16T21:56:30.566Z,83.75
2022-11-16T21:59:03.491Z,84.36
2022-11-16T22:01:53.685Z,84.07
2022-11-16T22:04:36.145Z,83.79
2022-11-16T22:07:18.704Z,84.02
2022-11-16T22:09:48.892Z,84.01
2022-11-16T22:12:18.973Z,84.17
2022-11-16T22:14:51.712Z,83.83
2022-11-16T22:17:21.843Z,83.75
2022-11-16T22:19:52.011Z,83.91
2022-11-16T22:22:22.137Z,84.14
2022-11-16T22:24:52.530Z,84.07
2022-11-16T22:27:22.834Z,83.91
2022-11-16T22:29:55.650Z,83.79
2022-11-16T22:32:25.936Z,83.80
2022-11-16T22:34:55.946Z,83.78
2022-11-16T22:37:26.051Z,83.66
2022-11-16T22:39:56.036Z,83.69
2022-11-16T22:42:26.166Z,83.64
2022-11-16T22:44:58.863Z,83.68
2022-11-16T22:47:28.883Z,83.37
2022-11-16T22:49:59.018Z,83.13
2022-11-16T22:52:29.092Z,83.03
2022-11-16T22:54:59.156Z,83.30
2022-11-16T22:57:29.249Z,83.25
2022-11-16T23:00:02.170Z,83.32
2022-11-16T23:02:34.038Z,83.48
2022-11-16T23:05:06.716Z,82.87
2022-11-16T23:07:36.924Z,82.95
2022-11-16T23:10:08.081Z,83.43
2022-11-16T23:12:50.564Z,82.97
2022-11-16T23:15:35.663Z,83.28
2022-11-16T23:18:05.767Z,83.12
2022-11-16T23:20:49.721Z,83.33
2022-11-16T23:23:42.099Z,83.16
2022-11-16T23:26:28.784Z,83.27
2022-11-16T23:29:17.377Z,83.30
2022-11-16T23:31:57.363Z,83.10
2022-11-16T23:34:41.559Z,83.19
2022-11-16T23:37:11.619Z,83.26
2022-11-16T23:39:41.751Z,83.33
2022-11-16T23:42:24.779Z,83.46
2022-11-16T23:44:54.838Z,83.30
2022-11-16T23:47:27.445Z,83.30
2022-11-16T23:49:57.510Z,83.53
2022-11-16T23:52:27.506Z,83.72
2022-11-16T23:54:57.628Z,83.52
2022-11-16T23:57:27.803Z,83.64
2022-11-16T23:59:58.007Z,83.53
